createdAt,value
2023-05-16T00:01:26.694Z,86.80
2023-05-16T00:11:51.833Z,86.86
2023-05-16T00:22:17.472Z,86.91
2023-05-16T00:32:45.469Z,87.01
2023-05-16T00:43:14.089Z,87.23
2023-05-16T00:53:39.228Z,87.63
2023-05-16T01:04:10.229Z,88.04
2023-05-16T01:15:07.132Z,88.36
2023-05-16T01:26:02.888Z,88.28
2023-05-16T01:36:42.277Z,88.65
2023-05-16T01:47:17.377Z,88.51
2023-05-16T01:57:44.238Z,88.74
2023-05-16T02:08:12.835Z,89.06
2023-05-16T02:18:37.534Z,89.00
2023-05-16T02:29:02.758Z,88.76
2023-05-16T02:39:27.663Z,88.68
2023-05-16T02:49:53.204Z,88.55
2023-05-16T03:00:19.192Z,88.88
2023-05-16T03:10:44.578Z,89.00
2023-05-16T03:21:12.013Z,89.12
2023-05-16T03:31:41.335Z,89.25
2023-05-16T03:42:07.974Z,89.02
2023-05-16T03:52:34.754Z,88.65
2023-05-16T04:03:00.927Z,88.52
2023-05-16T04:13:29.411Z,88.46
2023-05-16T04:23:55.039Z,87.92
2023-05-16T04:34:20.398Z,87.24
2023-05-16T04:44:45.239Z,86.55
2023-05-16T04:55:25.118Z,85.82
2023-05-16T05:05:50.939Z,85.03
2023-05-16T05:16:19.472Z,84.56
2023-05-16T05:26:49.116Z,84.05
2023-05-16T05:37:15.366Z,83.94
2023-05-16T05:47:40.996Z,84.35
2023-05-16T05:58:53.297Z,84.53
2023-05-16T06:10:11.782Z,84.59
2023-05-16T06:20:56.810Z,84.96
2023-05-16T06:31:22.158Z,85.63
2023-05-16T06:41:56.726Z,85.48
2023-05-16T06:53:07.679Z,84.88
2023-05-16T07:03:51.350Z,84.80
2023-05-16T07:14:16.264Z,84.66
2023-05-16T07:24:45.970Z,84.90
2023-05-16T07:35:13.982Z,84.76
2023-05-16T07:45:44.557Z,85.00
2023-05-16T07:56:25.732Z,85.14
2023-05-16T08:06:53.727Z,85.70
2023-05-16T08:17:22.544Z,85.63
2023-05-16T08:27:51.779Z,85.20
2023-05-16T08:38:20.282Z,84.71
2023-05-16T08:48:47.907Z,84.31
2023-05-16T08:59:13.348Z,83.88
2023-05-16T09:09:39.797Z,84.28
2023-05-16T09:20:23.943Z,84.45
2023-05-16T09:30:49.538Z,84.66
2023-05-16T09:41:17.539Z,84.51
2023-05-16T09:51:42.990Z,84.54
2023-05-16T10:02:11.526Z,83.86
2023-05-16T10:12:39.154Z,84.29
2023-05-16T10:23:12.680Z,84.06
2023-05-16T10:33:52.495Z,83.94
2023-05-16T10:44:21.669Z,84.04
2023-05-16T10:54:53.884Z,83.63
2023-05-16T11:05:20.588Z,83.37
2023-05-16T11:15:46.854Z,83.58
2023-05-16T11:26:14.576Z,83.35
2023-05-16T11:36:45.881Z,83.63
2023-05-16T11:47:15.233Z,83.29
2023-05-16T11:57:46.324Z,82.72
2023-05-16T12:08:23.120Z,82.53
2023-05-16T12:19:19.657Z,82.28
2023-05-16T12:30:35.878Z,81.00
2023-05-16T12:42:11.420Z,80.20
2023-05-16T12:53:04.299Z,79.61
2023-05-16T13:03:32.178Z,78.77
2023-05-16T13:13:58.199Z,78.76
2023-05-16T13:24:27.320Z,78.43
2023-05-16T13:34:55.689Z,78.60
2023-05-16T13:45:21.159Z,78.48
2023-05-16T13:55:48.745Z,78.23
2023-05-16T14:06:14.271Z,78.45
2023-05-16T14:16:54.168Z,79.04
2023-05-16T14:27:22.634Z,79.06
2023-05-16T14:37:48.384Z,79.23
2023-05-16T14:48:17.633Z,79.72
2023-05-16T14:58:44.318Z,80.26
2023-05-16T15:09:09.873Z,80.20
2023-05-16T15:19:35.753Z,80.43
2023-05-16T15:30:16.213Z,80.27
2023-05-16T15:41:12.268Z,80.43
2023-05-16T15:51:43.208Z,80.32
2023-05-16T16:02:16.369Z,80.01
2023-05-16T16:12:43.625Z,79.92
2023-05-16T16:23:11.978Z,80.07
2023-05-16T16:34:12.557Z,80.29
2023-05-16T16:45:12.741Z,80.33
2023-05-16T16:55:46.391Z,80.26
2023-05-16T17:06:24.109Z,80.47
2023-05-16T17:17:04.226Z,80.48
2023-05-16T17:27:32.601Z,80.44
2023-05-16T17:37:58.131Z,80.74
2023-05-16T17:48:26.360Z,81.09
2023-05-16T17:58:51.061Z,81.19
2023-05-16T18:09:19.854Z,81.56
2023-05-16T18:19:55.007Z,81.92
2023-05-16T18:30:26.458Z,82.11
2023-05-16T18:40:52.606Z,82.21
2023-05-16T18:51:18.594Z,82.22
2023-05-16T19:01:47.669Z,82.42
2023-05-16T19:12:32.980Z,82.77
2023-05-16T19:23:16.834Z,83.03
2023-05-16T19:34:22.716Z,83.19
2023-05-16T19:45:02.591Z,83.29
2023-05-16T19:55:29.402Z,83.89
2023-05-16T20:05:57.777Z,84.34
2023-05-16T20:16:27.646Z,84.41
2023-05-16T20:26:52.882Z,84.58
2023-05-16T20:37:18.047Z,84.82
2023-05-16T20:47:44.507Z,85.17
2023-05-16T20:58:09.630Z,85.04
2023-05-16T21:08:35.579Z,85.00
2023-05-16T21:19:03.472Z,84.92
2023-05-16T21:29:28.454Z,84.79
2023-05-16T21:39:53.984Z,84.92
2023-05-16T21:50:22.725Z,85.12
2023-05-16T22:01:13.901Z,85.09
2023-05-16T22:11:44.304Z,85.16
2023-05-16T22:22:16.183Z,85.69
2023-05-16T22:32:45.975Z,85.74
2023-05-16T22:43:14.172Z,85.90
2023-05-16T22:53:43.524Z,86.33
2023-05-16T23:04:09.284Z,86.53
2023-05-16T23:14:39.452Z,86.74
2023-05-16T23:25:31.935Z,87.09
2023-05-16T23:36:17.772Z,87.10
2023-05-16T23:46:52.869Z,86.93
2023-05-16T23:57:18.902Z,86.76
